Terminal Aerodrome Forecast
Issued by NWS

Home | Current Version | Previous Version | Text Only | Print | Product List | Glossary On
Versions: 1 2 3 4 5 6 7 8 9 10 11 12 13 14 15 16 17 18 19 20
000
FTUS43 KMKX 220520
TAFUES
TAF
KUES 220520Z 2206/2306 18011G18KT P6SM SCT050 BKN250 WS020/19045KT
     FM220800 18010G18KT P6SM VCSH BKN050 WS020/20040KT
     FM221300 18011G20KT P6SM -SHRA OVC015
     FM221800 26009KT 6SM -SHRA OVC020
     FM222000 32009KT 6SM -SHRA OVC015
     FM222300 34006KT 6SM -SHRA BKN035=

USA.gov is the U.S. government's official web portal to all federal, state and local government web resources and services.